Billings, MT

11:31 AM MDT on August 23, 2014 (GMT -0600)
Downtown Billings | Change Station
CLOSE
Current Station
Personal Weather Station
Location: Billings, MT
Elevation: 3127 ft
Nearby Weather Stations

Elev 3127 ft 45.78 °N, 108.50 °W | Updated 8 minutes ago

Light Rain
Light Rain Mist
59.5 °F
Feels Like 59.5 °F
N
6.3
Wind Variable Wind from SW
Gusts 11.9 mph

Today
High -- | Low -- °F
--% Chance of Precip.
Yesterday
High -- | Low -- °F
Precip. -- in
6:23 AM 8:08 PM
Waning Crescent, 3% visible
Pressure 29.83 in
Visibility 5.0 miles
Clouds Mostly Cloudy 500 ft
Mostly Cloudy 800 ft
Overcast 1800 ft
Dew Point 58 °F
Humidity 95%
Rainfall -999.00 in
Snow Depth Not available.
UV 2 out of 12
Pollen .90 out of 12
Air Quality Not available.
Flu Activity Not available.
METAR KBIL 231653Z 25007KT 5SM -RA BR BKN005 BKN008 OVC018 14/14 A2987 RMK AO2 SLP100 P0010 T01440139 $

More Conditions Fewer Conditions

Pressure 29.83 in
Visibility 5.0 miles
Clouds Mostly Cloudy 500 ft
Mostly Cloudy 800 ft
Overcast 1800 ft
Dew Point 58 °F
Humidity 95%
Rainfall -999.00 in
Snow Depth Not available.
UV 2 out of 12
Pollen .90 out of 12
Air Quality Not available.
Flu Activity Not available.
METAR KBIL 231653Z 25007KT 5SM -RA BR BKN005 BKN008 OVC018 14/14 A2987 RMK AO2 SLP100 P0010 T01440139 $

More Conditions Fewer Conditions

10-Day Weather Forecast

Almanac

Astronomy

Aug. 23, 2014 Rise Set
Actual Time 6:23 AM MDT 8:08 PM MDT
Civil Twilight 5:52 AM MDT 8:39 PM MDT
Nautical Twilight 5:13 AM MDT 9:18 PM MDT
Astronomical Twilight 4:31 AM MDT 9:59 PM MDT
Moon 4:41 AM MDT 6:55 PM MDT
Length of Visible Light 14h 47m
Length of Day
13h 44m
Tomorrow will be 3m 1s shorter.
Waning Crescent, 3% of the Moon is Illuminated
Today
Waning Crescent
Aug 25
New
Sep 2
First Quarter
Sep 8
Full
Sep 15
Last Quarter

Today's Extremes

State Highs State Lows

Community

WunderPhotos

Upload Photos

1,746,536 photos uploaded!

WunderBlogs® & News

By Dr. Jeff Masters
Director of Meteorology, Weather Underground
By Kari Strenfel
Meteorologist, Weather Underground
By Christopher C. Burt
Weather Historian, Weather Underground
August 23, 2014
August 23, 2014
August 23, 2014

Nearby

Snow Depth

Station Depth Elevation
Cole Creek 1 in 7850 ft
Burnt Mountain 0 in 5880 ft
Placer Basin 0 in 8830 ft
Crystal Lake 1 in 6050 ft
White Mill 2 in 8700 ft

Earthquake Activity

City Distance Mag. Time & Date
No recent earthquake activity has been reported nearby.
Minimum magnitude displayed is 2.5.

Coastal Water Temperatures

Place Temperature
No Stations Reporting

Nearby Weather Stations